Time;durP1;ratioP1;P1;durP2;ratioP2;P2;SDS_P1;SDS_P2;PMS_P1;PMS_P2;Temp;Humidity;BMP_temperature;BMP_pressure;BME280_temperature;BME280_humidity;BME280_pressure;Samples;Min_cycle;Max_cycle;Signal;HPM_P1;HPM_P2
2022/05/31 00:00:53;;;;;;;9.48;8.48;;;21.40;79.70;;;;;;6181605;28;90032;-64
2022/05/31 00:03:55;;;;;;;9.85;8.85;;;21.50;79.80;;;;;;6180927;28;89189;-64
2022/05/31 00:06:58;;;;;;;9.30;8.30;;;21.50;79.80;;;;;;6182425;28;89234;-64
2022/05/31 00:10:00;;;;;;;9.15;8.25;;;21.40;79.70;;;;;;6179711;28;88994;-64
2022/05/31 00:13:04;;;;;;;9.27;8.32;;;21.40;79.80;;;;;;6182030;28;89609;-64
2022/05/31 00:16:06;;;;;;;9.07;8.20;;;21.50;79.80;;;;;;6181135;28;89464;-63
2022/05/31 00:19:08;;;;;;;9.20;8.30;;;21.40;79.80;;;;;;6173391;28;87550;-64
2022/05/31 00:22:13;;;;;;;9.27;8.38;;;21.40;79.80;;;;;;6178396;28;87170;-64
2022/05/31 00:25:17;;;;;;;8.93;8.00;;;21.40;79.80;;;;;;6181298;28;89180;-64
2022/05/31 00:28:20;;;;;;;9.23;8.30;;;21.40;79.80;;;;;;6176110;28;89091;-64
2022/05/31 00:31:22;;;;;;;9.30;8.40;;;21.40;79.80;;;;;;6177852;28;90401;-64
2022/05/31 00:34:24;;;;;;;9.07;8.18;;;21.40;79.90;;;;;;6175056;28;89367;-64
2022/05/31 00:37:26;;;;;;;8.73;7.90;;;21.40;79.80;;;;;;6181492;28;89081;-63
2022/05/31 00:40:30;;;;;;;9.18;8.27;;;21.40;79.80;;;;;;6181140;28;89149;-64
2022/05/31 00:43:34;;;;;;;9.38;8.38;;;21.50;79.80;;;;;;6182102;28;89094;-64
2022/05/31 00:46:44;;;;;;;9.48;8.48;;;21.50;79.80;;;;;;6176469;28;89127;-64
2022/05/31 00:49:50;;;;;;;9.50;8.50;;;21.50;79.70;;;;;;6178964;28;89189;-64
2022/05/31 00:52:56;;;;;;;9.88;8.43;;;21.50;79.80;;;;;;6181906;28;88334;-64
2022/05/31 00:56:04;;;;;;;9.25;8.27;;;21.50;79.60;;;;;;6180542;28;89011;-64
2022/05/31 00:59:12;;;;;;;8.60;7.80;;;21.50;79.60;;;;;;6180912;28;90049;-64
2022/05/31 01:02:17;;;;;;;8.77;7.97;;;21.50;79.60;;;;;;6170056;28;89974;-64
2022/05/31 01:05:20;;;;;;;8.52;7.72;;;21.50;79.60;;;;;;6179252;28;89069;-63
2022/05/31 01:08:23;;;;;;;8.20;7.40;;;21.50;79.60;;;;;;6179654;28;89175;-63
2022/05/31 01:11:29;;;;;;;8.68;7.85;;;21.50;79.70;;;;;;6181495;28;89069;-64
2022/05/31 01:14:33;;;;;;;8.02;7.22;;;21.50;79.60;;;;;;6181001;28;90115;-64
2022/05/31 01:17:35;;;;;;;8.20;7.40;;;21.50;79.60;;;;;;6180680;28;89164;-63
2022/05/31 01:20:39;;;;;;;8.50;7.60;;;21.50;79.60;;;;;;6180392;28;89378;-64
2022/05/31 01:23:47;;;;;;;8.00;7.20;;;21.50;79.60;;;;;;6180192;28;88642;-64
2022/05/31 01:26:55;;;;;;;7.90;7.10;;;21.50;79.60;;;;;;6180112;28;89173;-64
2022/05/31 01:29:59;;;;;;;8.00;7.20;;;21.50;79.60;;;;;;6179423;28;89173;-64
2022/05/31 01:33:06;;;;;;;8.32;7.53;;;21.50;79.60;;;;;;6178998;28;90068;-64
2022/05/31 01:36:13;;;;;;;8.00;7.20;;;21.50;79.70;;;;;;6175067;28;89083;-63
2022/05/31 01:39:21;;;;;;;7.90;7.10;;;21.50;79.70;;;;;;6180475;28;89220;-64
2022/05/31 01:42:30;;;;;;;7.70;6.90;;;21.50;79.90;;;;;;6179140;28;89067;-64
2022/05/31 01:45:37;;;;;;;7.38;6.68;;;21.40;79.80;;;;;;6168715;28;89017;-64
2022/05/31 01:48:42;;;;;;;7.20;6.50;;;21.40;79.80;;;;;;6178501;28;89425;-63
2022/05/31 01:51:46;;;;;;;7.22;6.53;;;21.40;79.80;;;;;;6180781;28;89056;-64
2022/05/31 01:54:49;;;;;;;7.35;6.65;;;21.40;79.80;;;;;;6177984;28;87367;-64
2022/05/31 01:57:57;;;;;;;7.93;7.13;;;21.40;79.80;;;;;;6183191;28;89416;-64
2022/05/31 02:01:00;;;;;;;7.47;6.78;;;21.40;79.80;;;;;;6184788;28;89259;-64
2022/05/31 02:04:04;;;;;;;7.15;6.45;;;21.40;79.80;;;;;;6184527;28;93861;-64
2022/05/31 02:07:11;;;;;;;7.25;6.55;;;21.40;79.80;;;;;;6183706;28;90856;-64
2022/05/31 02:10:13;;;;;;;6.97;6.28;;;21.40;79.80;;;;;;6183718;28;89113;-64
2022/05/31 02:13:18;;;;;;;7.05;6.32;;;21.40;79.80;;;;;;6183871;28;89034;-64
2022/05/31 02:16:20;;;;;;;6.88;6.18;;;21.40;80.00;;;;;;6184175;28;87915;-64
2022/05/31 02:19:27;;;;;;;6.78;6.13;;;21.40;79.90;;;;;;6177451;28;87955;-64
2022/05/31 02:22:30;;;;;;;6.95;6.25;;;21.40;79.90;;;;;;6182094;28;88895;-64
2022/05/31 02:25:32;;;;;;;6.45;5.85;;;21.40;80.00;;;;;;6183475;28;88510;-64
2022/05/31 02:28:35;;;;;;;6.72;6.03;;;21.30;79.90;;;;;;6182745;28;89377;-64
2022/05/31 02:31:38;;;;;;;7.20;5.97;;;21.40;80.00;;;;;;6183630;28;89376;-64
2022/05/31 02:34:42;;;;;;;6.60;6.00;;;21.40;80.80;;;;;;6183421;28;90026;-64
2022/05/31 02:37:46;;;;;;;6.45;5.78;;;21.30;79.90;;;;;;6172083;28;88173;-64
2022/05/31 02:40:48;;;;;;;6.55;5.93;;;21.40;80.00;;;;;;6182663;28;89084;-64
2022/05/31 02:43:50;;;;;;;5.97;5.45;;;21.40;80.00;;;;;;6181184;28;89113;-64
2022/05/31 02:46:52;;;;;;;6.70;6.00;;;21.40;80.00;;;;;;6181785;28;89418;-63
2022/05/31 02:49:54;;;;;;;7.05;6.32;;;21.40;79.90;;;;;;6180948;28;88846;-64
2022/05/31 02:52:57;;;;;;;5.85;5.25;;;21.30;79.80;;;;;;6182185;28;89094;-64
2022/05/31 02:55:59;;;;;;;6.15;5.55;;;21.40;79.80;;;;;;6178003;28;88586;-64
2022/05/31 02:59:01;;;;;;;6.10;5.50;;;21.40;79.80;;;;;;6181236;28;87995;-64
2022/05/31 03:02:03;;;;;;;5.60;5.10;;;21.40;79.80;;;;;;6183361;28;88999;-64
2022/05/31 03:05:06;;;;;;;5.90;5.30;;;21.40;79.80;;;;;;6180639;28;89917;-64
2022/05/31 03:08:11;;;;;;;6.00;5.40;;;21.40;79.80;;;;;;6181371;28;89116;-64
2022/05/31 03:11:16;;;;;;;5.32;4.82;;;21.40;79.80;;;;;;6182181;28;89130;-64
2022/05/31 03:14:23;;;;;;;5.55;5.00;;;21.40;79.80;;;;;;6182629;28;89150;-63
2022/05/31 03:17:31;;;;;;;7.07;5.70;;;21.40;79.80;;;;;;6182802;28;89410;-63
2022/05/31 03:20:37;;;;;;;5.50;5.00;;;21.40;79.80;;;;;;6170625;28;89206;-63
2022/05/31 03:23:44;;;;;;;5.45;4.93;;;21.40;79.70;;;;;;6182029;28;89166;-63
2022/05/31 03:26:48;;;;;;;5.82;4.95;;;21.40;79.80;;;;;;6181498;28;88846;-63
2022/05/31 03:29:52;;;;;;;5.55;5.05;;;21.40;79.80;;;;;;6181962;28;89091;-63
2022/05/31 03:32:57;;;;;;;5.35;4.85;;;21.40;79.80;;;;;;6182467;28;88062;-63
2022/05/31 03:35:59;;;;;;;6.05;5.25;;;21.40;79.80;;;;;;6181148;28;90048;-63
2022/05/31 03:39:03;;;;;;;5.00;4.50;;;21.40;79.80;;;;;;6181922;28;88035;-63
2022/05/31 03:42:07;;;;;;;5.28;4.78;;;21.40;79.80;;;;;;6182301;28;88963;-63
2022/05/31 03:45:10;;;;;;;5.10;4.60;;;21.30;79.70;;;;;;6182198;28;89086;-63
2022/05/31 03:48:13;;;;;;;4.97;4.47;;;21.40;79.90;;;;;;6182159;28;88954;-63
2022/05/31 03:51:15;;;;;;;5.10;4.60;;;21.40;79.80;;;;;;6182269;28;88088;-64
2022/05/31 03:54:19;;;;;;;4.80;4.32;;;21.30;79.80;;;;;;6172740;28;89280;-63
2022/05/31 03:57:22;;;;;;;4.63;4.22;;;21.40;80.00;;;;;;6182938;28;88382;-64
2022/05/31 04:00:24;;;;;;;4.50;4.10;;;21.40;79.90;;;;;;6182251;28;89139;-63
2022/05/31 04:03:27;;;;;;;4.60;4.20;;;21.30;79.90;;;;;;6180375;28;89381;-64
2022/05/31 04:06:29;;;;;;;4.72;4.22;;;21.30;79.80;;;;;;6179506;28;89938;-64
2022/05/31 04:09:32;;;;;;;4.88;4.40;;;21.40;80.00;;;;;;6180530;28;89334;-64
2022/05/31 04:12:35;;;;;;;4.45;4.05;;;21.30;79.90;;;;;;6181208;28;89150;-64
2022/05/31 04:15:37;;;;;;;4.18;3.78;;;21.30;79.90;;;;;;6180635;28;88892;-63
2022/05/31 04:18:40;;;;;;;3.90;3.60;;;21.30;79.90;;;;;;6181343;28;89187;-63
2022/05/31 04:21:42;;;;;;;4.43;4.03;;;21.30;79.90;;;;;;6180732;28;89016;-64
2022/05/31 04:24:45;;;;;;;4.03;3.70;;;21.30;79.90;;;;;;6179882;28;89110;-64
2022/05/31 04:27:47;;;;;;;5.20;4.00;;;21.30;79.90;;;;;;6181253;28;88749;-63
2022/05/31 04:30:49;;;;;;;4.63;3.95;;;21.30;79.90;;;;;;6180446;28;89180;-63
2022/05/31 04:33:51;;;;;;;4.40;4.00;;;21.30;79.90;;;;;;6181742;28;89306;-64
2022/05/31 04:36:53;;;;;;;3.90;3.60;;;21.30;79.90;;;;;;6181473;28;90037;-64
2022/05/31 04:39:57;;;;;;;4.50;4.00;;;21.30;80.00;;;;;;6180421;28;89065;-63
2022/05/31 04:42:59;;;;;;;4.00;3.63;;;21.30;80.00;;;;;;6179831;28;89038;-63
2022/05/31 04:46:10;;;;;;;4.10;3.70;;;21.30;80.00;;;;;;6180080;28;89955;-63
2022/05/31 04:49:12;;;;;;;4.18;3.67;;;21.30;80.00;;;;;;6180599;28;88864;-64
2022/05/31 04:52:14;;;;;;;5.53;4.07;;;21.30;79.90;;;;;;6178911;28;88135;-63
2022/05/31 04:55:18;;;;;;;5.10;3.70;;;21.30;79.90;;;;;;6181223;28;89961;-63
2022/05/31 04:58:20;;;;;;;4.38;3.97;;;21.30;79.90;;;;;;6180983;28;88329;-63
2022/05/31 05:01:23;;;;;;;4.00;3.60;;;21.30;79.90;;;;;;6180600;28;91005;-63
2022/05/31 05:04:25;;;;;;;4.13;3.60;;;21.40;80.00;;;;;;6179939;28;89250;-63
2022/05/31 05:07:31;;;;;;;3.30;3.00;;;21.40;80.00;;;;;;6180028;28;90215;-63
2022/05/31 05:10:34;;;;;;;3.50;3.20;;;21.40;80.00;;;;;;6178561;28;89504;-63
2022/05/31 05:13:37;;;;;;;3.65;3.35;;;21.40;80.00;;;;;;6181563;28;89052;-63
2022/05/31 05:16:39;;;;;;;3.95;3.30;;;21.40;80.00;;;;;;6180477;28;88972;-64
2022/05/31 05:19:41;;;;;;;3.60;3.30;;;21.40;80.00;;;;;;6179952;28;89194;-64
2022/05/31 05:22:43;;;;;;;3.47;3.17;;;21.40;80.00;;;;;;6181085;28;89347;-64
2022/05/31 05:25:50;;;;;;;4.28;3.65;;;21.40;80.00;;;;;;6170831;28;89098;-64
2022/05/31 05:32:23;;;;;;;3.28;2.92;;;21.40;80.00;;;;;;6124050;28;91220;-64
2022/05/31 05:35:25;;;;;;;3.75;3.42;;;21.40;80.00;;;;;;6174108;28;89164;-63
2022/05/31 05:38:27;;;;;;;3.55;3.20;;;21.40;80.00;;;;;;6182856;28;90284;-63
2022/05/31 05:41:32;;;;;;;3.60;3.25;;;21.40;80.00;;;;;;6182522;28;89081;-64
2022/05/31 05:44:34;;;;;;;3.22;2.92;;;21.40;80.00;;;;;;6184861;28;88987;-63
2022/05/31 05:47:36;;;;;;;3.60;3.17;;;21.40;80.10;;;;;;6183661;28;88943;-64
2022/05/31 05:50:40;;;;;;;3.47;3.17;;;21.40;80.10;;;;;;6183284;28;89163;-64
2022/05/31 05:53:42;;;;;;;3.60;3.30;;;21.40;80.10;;;;;;6183474;28;89004;-64
2022/05/31 05:56:46;;;;;;;3.40;3.08;;;21.40;80.20;;;;;;6183825;28;89154;-64
2022/05/31 05:59:48;;;;;;;3.50;3.10;;;21.40;80.20;;;;;;6183827;28;88306;-64
2022/05/31 06:02:56;;;;;;;4.25;3.30;;;21.40;80.30;;;;;;6184213;28;89190;-63
2022/05/31 06:05:59;;;;;;;4.05;3.30;;;21.30;80.10;;;;;;6183128;28;89062;-64
2022/05/31 06:09:04;;;;;;;3.20;2.90;;;21.40;80.30;;;;;;6182502;28;91561;-63
2022/05/31 06:12:13;;;;;;;3.45;3.15;;;21.40;80.30;;;;;;6183524;28;89130;-63
2022/05/31 06:15:21;;;;;;;3.30;3.00;;;21.30;80.20;;;;;;6182653;28;89091;-64
2022/05/31 06:18:28;;;;;;;3.78;3.30;;;21.30;80.20;;;;;;6183645;28;89338;-63
2022/05/31 06:21:31;;;;;;;3.28;2.97;;;21.30;80.30;;;;;;6182736;28;89104;-64
2022/05/31 06:24:35;;;;;;;3.08;2.78;;;21.30;80.30;;;;;;6182294;28;89054;-64
2022/05/31 06:27:38;;;;;;;4.25;3.13;;;21.40;80.40;;;;;;6183619;28;89095;-63
2022/05/31 06:30:40;;;;;;;4.07;3.05;;;21.30;80.20;;;;;;6182128;28;88322;-64
2022/05/31 06:33:42;;;;;;;3.13;2.83;;;21.40;80.30;;;;;;6172774;28;89311;-63
2022/05/31 06:36:44;;;;;;;3.42;3.00;;;21.30;80.20;;;;;;6180208;28;89085;-63
2022/05/31 06:39:47;;;;;;;2.75;2.53;;;21.40;80.30;;;;;;6182207;28;90240;-63
2022/05/31 06:42:50;;;;;;;3.30;2.95;;;21.30;80.20;;;;;;6178794;28;89511;-64
2022/05/31 06:45:52;;;;;;;3.03;2.72;;;21.40;80.30;;;;;;6182830;28;87940;-64
2022/05/31 06:48:54;;;;;;;3.17;2.88;;;21.40;80.30;;;;;;6182426;28;89142;-64
2022/05/31 06:58:38;;;;;;;2.83;2.50;;;21.40;80.30;;;;;;6181856;28;89204;-63
2022/05/31 07:01:40;;;;;;;2.90;2.70;;;21.40;80.30;;;;;;6183224;28;88657;-64
2022/05/31 07:04:42;;;;;;;3.35;2.70;;;21.40;80.30;;;;;;6182263;28;89083;-64
2022/05/31 07:07:44;;;;;;;2.88;2.67;;;21.40;80.30;;;;;;6183052;28;89391;-64
2022/05/31 07:10:46;;;;;;;2.95;2.65;;;21.40;80.30;;;;;;6181467;28;90107;-63
2022/05/31 07:13:50;;;;;;;2.60;2.40;;;21.40;80.30;;;;;;6182330;28;88128;-63
2022/05/31 07:16:52;;;;;;;3.13;2.83;;;21.40;80.30;;;;;;6182895;28;89417;-64
2022/05/31 07:19:54;;;;;;;3.83;2.70;;;21.50;80.40;;;;;;6182072;28;89232;-64
2022/05/31 07:22:56;;;;;;;3.00;2.70;;;21.50;80.40;;;;;;6182811;28;87823;-63
2022/05/31 07:26:00;;;;;;;4.10;2.97;;;21.50;80.30;;;;;;6181130;28;88207;-64
2022/05/31 07:29:03;;;;;;;2.65;2.45;;;21.50;80.30;;;;;;6182748;28;89050;-63
2022/05/31 07:32:07;;;;;;;2.67;2.40;;;21.50;80.30;;;;;;6181375;28;87425;-64
2022/05/31 07:35:10;;;;;;;3.38;2.50;;;21.50;80.30;;;;;;6180991;28;89051;-63
2022/05/31 07:38:12;;;;;;;2.40;2.20;;;21.50;80.30;;;;;;6182167;28;89204;-64
2022/05/31 07:41:14;;;;;;;2.60;2.40;;;21.50;80.30;;;;;;6181623;28;91793;-64
2022/05/31 07:44:19;;;;;;;3.80;2.75;;;21.50;80.30;;;;;;6181323;28;89059;-64
2022/05/31 07:47:20;;;;;;;2.80;2.45;;;21.50;80.30;;;;;;6181031;28;88922;-64
2022/05/31 07:50:23;;;;;;;2.60;2.28;;;21.50;80.40;;;;;;6180131;28;89126;-64
2022/05/31 07:53:25;;;;;;;2.95;2.28;;;21.50;80.50;;;;;;6180868;28;89104;-64
2022/05/31 07:56:29;;;;;;;2.42;2.20;;;21.50;80.50;;;;;;6182697;28;89089;-63
2022/05/31 07:59:33;;;;;;;2.58;2.30;;;21.50;80.50;;;;;;6181642;28;89140;-64
2022/05/31 08:02:35;;;;;;;2.72;2.33;;;21.50;80.60;;;;;;6182455;28;87913;-64
2022/05/31 08:05:37;;;;;;;2.33;2.13;;;21.50;80.80;;;;;;6181947;28;88922;-64
2022/05/31 08:08:40;;;;;;;2.55;2.28;;;21.50;80.80;;;;;;6181779;28;89334;-64
2022/05/31 08:11:42;;;;;;;2.67;2.33;;;21.40;80.70;;;;;;6179828;28;90010;-64
2022/05/31 08:14:45;;;;;;;2.42;2.22;;;21.50;80.80;;;;;;6180513;28;88912;-63
2022/05/31 08:17:47;;;;;;;2.55;2.35;;;21.50;80.90;;;;;;6181933;28;89014;-63
2022/05/31 08:20:49;;;;;;;3.40;2.58;;;21.50;81.00;;;;;;6181592;28;89293;-64
2022/05/31 08:23:51;;;;;;;2.40;2.20;;;21.40;80.90;;;;;;6181752;28;89471;-64
2022/05/31 08:26:54;;;;;;;2.20;2.00;;;21.40;80.80;;;;;;6180764;28;89155;-64
2022/05/31 08:29:57;;;;;;;2.35;2.15;;;21.50;81.00;;;;;;6178599;28;88998;-63
2022/05/31 08:33:00;;;;;;;2.40;2.03;;;21.40;81.00;;;;;;6181117;28;88239;-64
2022/05/31 08:36:02;;;;;;;2.75;2.13;;;21.40;81.00;;;;;;6176900;28;89156;-64
2022/05/31 08:39:04;;;;;;;3.38;2.55;;;21.40;81.00;;;;;;6179786;28;89102;-64
2022/05/31 08:42:09;;;;;;;2.40;2.20;;;21.50;81.10;;;;;;6179886;28;90283;-64
2022/05/31 08:45:24;;;;;;;2.42;2.22;;;21.40;81.00;;;;;;6169138;28;89047;-64
2022/05/31 08:48:32;;;;;;;2.58;2.38;;;21.50;82.00;;;;;;6181168;28;90743;-63
2022/05/31 08:51:55;;;;;;;2.50;2.10;;;21.50;81.10;;;;;;6181504;28;87979;-64
2022/05/31 08:58:27;;;;;;;2.28;2.08;;;21.50;81.30;;;;;;6181626;28;88269;-64
2022/05/31 09:01:35;;;;;;;2.55;2.05;;;21.50;81.20;;;;;;6179370;28;89042;-64
2022/05/31 09:04:43;;;;;;;2.25;2.05;;;21.50;81.30;;;;;;6181071;28;88644;-64
2022/05/31 09:07:49;;;;;;;2.20;2.00;;;21.40;81.20;;;;;;6180919;28;89097;-64
2022/05/31 09:11:01;;;;;;;2.40;2.10;;;21.50;81.30;;;;;;6179997;28;89787;-63
2022/05/31 09:14:14;;;;;;;2.10;1.90;;;21.50;81.30;;;;;;6179621;28;90530;-64
2022/05/31 09:17:26;;;;;;;2.25;2.00;;;21.50;81.20;;;;;;6180436;28;89500;-64
2022/05/31 09:20:34;;;;;;;2.10;1.90;;;21.50;81.30;;;;;;6180937;28;92346;-64
2022/05/31 09:23:38;;;;;;;2.30;1.98;;;21.50;81.30;;;;;;6180565;28;89121;-64
2022/05/31 09:27:04;;;;;;;2.10;1.90;;;21.50;81.20;;;;;;6180421;28;89250;-64
2022/05/31 09:30:10;;;;;;;2.38;2.17;;;21.50;81.30;;;;;;6180949;28;89174;-63
2022/05/31 09:33:20;;;;;;;2.33;2.00;;;21.50;81.30;;;;;;6179658;28;89090;-64
2022/05/31 09:36:28;;;;;;;2.05;1.88;;;21.40;81.20;;;;;;6180838;28;87218;-63
2022/05/31 09:39:34;;;;;;;2.10;1.90;;;21.50;81.30;;;;;;6180235;28;89041;-64
2022/05/31 09:42:41;;;;;;;1.90;1.80;;;21.50;81.30;;;;;;6179982;28;88899;-64
2022/05/31 09:45:59;;;;;;;2.17;1.98;;;21.50;81.30;;;;;;6178850;28;90043;-63
2022/05/31 09:49:22;;;;;;;2.38;1.90;;;21.50;81.30;;;;;;6179252;28;89112;-64
2022/05/31 09:52:32;;;;;;;1.85;1.70;;;21.50;81.30;;;;;;6178929;28;89318;-64
2022/05/31 09:59:07;;;;;;;3.38;2.53;;;21.50;81.40;;;;;;6178476;28;89489;-64
2022/05/31 10:02:19;;;;;;;2.25;1.90;;;21.50;81.50;;;;;;6179440;28;89000;-63
2022/05/31 10:05:23;;;;;;;3.33;2.15;;;21.50;81.40;;;;;;6180258;28;87927;-64
2022/05/31 10:08:32;;;;;;;2.10;1.90;;;21.50;81.40;;;;;;6181033;28;88630;-63
2022/05/31 10:11:43;;;;;;;1.85;1.75;;;21.50;81.50;;;;;;6179425;28;87981;-64
2022/05/31 10:14:48;;;;;;;2.20;2.00;;;21.50;81.50;;;;;;6180206;28;89079;-63
2022/05/31 10:18:01;;;;;;;1.95;1.80;;;21.50;81.50;;;;;;6183815;28;89978;-63
2022/05/31 10:21:07;;;;;;;1.90;1.70;;;21.50;81.60;;;;;;6183522;28;89164;-64
2022/05/31 10:24:17;;;;;;;2.63;2.15;;;21.50;81.60;;;;;;6183995;28;89077;-64
2022/05/31 10:27:22;;;;;;;2.60;2.13;;;21.50;81.60;;;;;;6183198;28;87055;-63
2022/05/31 10:30:24;;;;;;;2.38;2.03;;;21.50;81.60;;;;;;6183897;28;88028;-63
2022/05/31 10:33:28;;;;;;;2.42;1.90;;;21.50;81.80;;;;;;6184089;28;89169;-64
2022/05/31 10:36:34;;;;;;;2.05;1.80;;;21.50;81.60;;;;;;6182645;28;89075;-62
2022/05/31 10:39:39;;;;;;;1.88;1.70;;;21.50;81.70;;;;;;6179785;28;88320;-63
2022/05/31 10:42:45;;;;;;;1.90;1.77;;;21.50;81.80;;;;;;6183865;28;89051;-63
2022/05/31 10:45:47;;;;;;;2.20;2.00;;;21.50;81.70;;;;;;6182801;28;89112;-64
2022/05/31 10:48:52;;;;;;;3.17;2.15;;;21.50;81.60;;;;;;6181215;28;88919;-63
2022/05/31 10:52:07;;;;;;;2.08;1.88;;;21.50;81.70;;;;;;6172982;28;89468;-63
2022/05/31 10:55:38;;;;;;;2.10;1.80;;;21.50;81.80;;;;;;6171984;28;89067;-63
2022/05/31 10:58:52;;;;;;;1.77;1.67;;;21.50;81.80;;;;;;6159103;28;89011;-63
2022/05/31 11:02:17;;;;;;;2.08;1.73;;;21.50;81.80;;;;;;6172458;28;89203;-63
2022/05/31 11:05:24;;;;;;;2.90;2.08;;;21.50;81.80;;;;;;6172534;28;89165;-63
2022/05/31 11:12:10;;;;;;;2.50;2.03;;;21.50;81.70;;;;;;6180063;28;86853;-63
2022/05/31 11:15:27;;;;;;;2.10;1.90;;;21.50;81.80;;;;;;6182770;28;89818;-64
2022/05/31 11:18:48;;;;;;;2.00;1.80;;;21.50;81.70;;;;;;6183317;28;89109;-63
2022/05/31 11:22:02;;;;;;;1.95;1.75;;;21.50;81.70;;;;;;6181116;28;89769;-63
2022/05/31 11:25:46;;;;;;;2.20;1.85;;;21.50;81.60;;;;;;6181616;28;90218;-64
2022/05/31 11:29:07;;;;;;;1.95;1.83;;;21.50;81.70;;;;;;6149569;28;89190;-64
2022/05/31 11:32:18;;;;;;;1.92;1.70;;;21.50;81.50;;;;;;6181157;28;88295;-64
2022/05/31 11:35:38;;;;;;;1.98;1.77;;;21.50;81.60;;;;;;6179755;28;87815;-64
2022/05/31 11:38:51;;;;;;;1.80;1.70;;;21.60;81.60;;;;;;6181980;28;89076;-64
2022/05/31 11:42:09;;;;;;;2.25;1.90;;;21.50;81.60;;;;;;6182298;28;92053;-63
2022/05/31 11:45:20;;;;;;;2.63;1.73;;;21.60;81.60;;;;;;6176127;28;88311;-63
2022/05/31 11:48:43;;;;;;;2.25;1.85;;;21.60;81.60;;;;;;6181002;28;89096;-64
2022/05/31 11:52:02;;;;;;;2.00;1.77;;;21.60;81.60;;;;;;6181569;28;89244;-64
2022/05/31 11:55:28;;;;;;;1.75;1.65;;;21.60;81.50;;;;;;6181000;28;90192;-64
2022/05/31 11:58:42;;;;;;;1.63;1.52;;;21.60;81.50;;;;;;6180487;28;89214;-64
2022/05/31 12:01:49;;;;;;;2.17;1.80;;;21.60;81.60;;;;;;6181431;28;89119;-64
2022/05/31 12:05:00;;;;;;;1.73;1.63;;;21.60;81.60;;;;;;6181178;28;89086;-63
2022/05/31 12:08:11;;;;;;;2.90;1.90;;;21.50;81.60;;;;;;6181665;28;89072;-64
2022/05/31 12:11:20;;;;;;;3.05;2.03;;;21.50;81.60;;;;;;6181677;28;89175;-64
2022/05/31 12:14:25;;;;;;;2.33;1.70;;;21.50;81.60;;;;;;6171670;28;89064;-64
2022/05/31 12:17:32;;;;;;;1.92;1.73;;;21.60;81.80;;;;;;6171092;28;88294;-63
2022/05/31 12:20:40;;;;;;;1.63;1.52;;;21.50;81.70;;;;;;6182341;28;88013;-63
2022/05/31 12:23:51;;;;;;;1.50;1.40;;;21.50;81.70;;;;;;6180568;28;88925;-64
2022/05/31 12:26:56;;;;;;;1.90;1.70;;;21.60;81.90;;;;;;6181194;28;90822;-64
2022/05/31 12:30:05;;;;;;;1.77;1.60;;;21.50;81.80;;;;;;6180819;28;89071;-63
2022/05/31 12:33:36;;;;;;;2.03;1.83;;;21.60;81.80;;;;;;6179809;28;88267;-63
2022/05/31 12:36:57;;;;;;;2.03;1.83;;;21.50;81.70;;;;;;6180003;28;89037;-63
2022/05/31 12:40:27;;;;;;;1.52;1.42;;;21.50;81.80;;;;;;6181229;28;89611;-63
2022/05/31 12:43:55;;;;;;;1.60;1.50;;;21.50;81.80;;;;;;6174444;28;89165;-63
2022/05/31 12:47:12;;;;;;;2.70;2.00;;;21.50;81.80;;;;;;6170579;28;89214;-63
2022/05/31 12:51:08;;;;;;;2.67;2.00;;;21.50;81.80;;;;;;6170486;28;88370;-63
2022/05/31 12:54:13;;;;;;;1.65;1.55;;;21.50;81.90;;;;;;6181696;28;88930;-64
2022/05/31 12:57:23;;;;;;;1.50;1.40;;;21.50;81.80;;;;;;6180545;28;89066;-64
2022/05/31 13:00:41;;;;;;;1.52;1.40;;;21.50;81.80;;;;;;6177384;28;91005;-63
2022/05/31 13:04:06;;;;;;;1.70;1.60;;;21.50;81.80;;;;;;6180544;28;89163;-63
2022/05/31 13:07:14;;;;;;;1.80;1.70;;;21.50;81.80;;;;;;6180477;28;89007;-64
2022/05/31 13:10:34;;;;;;;1.90;1.70;;;21.50;81.80;;;;;;6179593;28;89160;-63
2022/05/31 13:20:27;;;;;;;1.42;1.33;;;21.50;81.80;;;;;;6177832;28;88308;-64
2022/05/31 13:23:37;;;;;;;1.55;1.45;;;21.60;81.80;;;;;;6180034;28;88359;-64
2022/05/31 13:26:40;;;;;;;1.52;1.33;;;21.50;81.60;;;;;;6179895;28;89100;-64
2022/05/31 13:29:42;;;;;;;1.70;1.60;;;21.60;81.70;;;;;;6177533;28;89181;-63
2022/05/31 13:32:44;;;;;;;1.63;1.50;;;21.60;81.70;;;;;;6179511;28;89847;-64
2022/05/31 13:35:57;;;;;;;1.45;1.35;;;21.60;81.70;;;;;;6181181;28;89080;-64
2022/05/31 13:39:03;;;;;;;1.85;1.50;;;21.60;81.60;;;;;;6180038;28;89082;-64
2022/05/31 13:42:06;;;;;;;1.50;1.40;;;21.60;81.60;;;;;;6180127;28;89130;-64
2022/05/31 13:45:14;;;;;;;1.85;1.50;;;21.60;81.50;;;;;;6180864;28;89083;-63
2022/05/31 13:48:19;;;;;;;1.70;1.60;;;21.60;81.60;;;;;;6179057;28;89293;-63
2022/05/31 13:51:27;;;;;;;2.55;1.80;;;21.60;81.50;;;;;;6182514;28;89028;-64
2022/05/31 13:54:31;;;;;;;2.05;1.50;;;21.60;81.50;;;;;;6184854;28;87156;-64
2022/05/31 13:57:34;;;;;;;1.55;1.45;;;21.70;81.50;;;;;;6185176;28;89049;-63
2022/05/31 14:00:42;;;;;;;1.58;1.48;;;21.60;81.50;;;;;;6183182;28;91300;-64
2022/05/31 14:03:44;;;;;;;1.60;1.50;;;21.60;81.50;;;;;;6183148;28;88915;-63
2022/05/31 14:06:50;;;;;;;1.30;1.20;;;21.60;81.50;;;;;;6183779;28;89088;-64
2022/05/31 14:09:55;;;;;;;2.42;1.70;;;21.60;81.40;;;;;;6181682;28;89019;-64
2022/05/31 14:13:00;;;;;;;2.30;1.60;;;21.60;81.50;;;;;;6183732;28;89177;-64
2022/05/31 14:16:12;;;;;;;2.03;1.63;;;21.60;81.50;;;;;;6183764;28;89464;-64
2022/05/31 14:19:16;;;;;;;1.60;1.50;;;21.60;81.50;;;;;;6172395;28;89083;-64
2022/05/31 14:22:24;;;;;;;1.65;1.55;;;21.60;81.60;;;;;;6183806;28;88983;-64
2022/05/31 14:25:26;;;;;;;1.60;1.50;;;21.60;81.60;;;;;;6183793;28;88685;-64
2022/05/31 14:28:28;;;;;;;1.70;1.50;;;21.60;81.60;;;;;;6183284;28;89110;-64
2022/05/31 14:31:30;;;;;;;1.50;1.40;;;21.60;81.70;;;;;;6182452;28;89245;-64
2022/05/31 14:34:39;;;;;;;1.92;1.50;;;21.60;81.60;;;;;;6181221;28;90484;-63
2022/05/31 14:37:46;;;;;;;2.45;1.80;;;21.60;81.60;;;;;;6178015;28;89076;-64
2022/05/31 14:40:54;;;;;;;1.90;1.58;;;21.60;81.70;;;;;;6183356;28;87977;-64
2022/05/31 14:43:59;;;;;;;2.10;1.65;;;21.60;81.70;;;;;;6182964;28;89493;-64
2022/05/31 14:47:10;;;;;;;1.58;1.48;;;21.60;81.70;;;;;;6178028;28;89226;-64
2022/05/31 14:50:25;;;;;;;1.67;1.55;;;21.60;81.70;;;;;;6181944;28;89084;-64
2022/05/31 14:53:37;;;;;;;1.50;1.40;;;21.60;81.80;;;;;;6180062;28;89707;-64
2022/05/31 14:56:42;;;;;;;2.55;1.65;;;21.50;81.70;;;;;;6182922;28;88358;-64
2022/05/31 14:59:47;;;;;;;1.90;1.67;;;21.60;81.80;;;;;;6181978;28;89019;-64
2022/05/31 15:02:49;;;;;;;2.17;1.77;;;21.60;81.80;;;;;;6182776;28;89028;-64
2022/05/31 15:05:58;;;;;;;1.65;1.45;;;21.60;81.80;;;;;;6182684;28;90174;-64
2022/05/31 15:09:07;;;;;;;1.40;1.30;;;21.50;81.80;;;;;;6182814;28;88153;-64
2022/05/31 15:18:59;;;;;;;1.92;1.65;;;21.50;81.80;;;;;;6181463;28;87308;-63
2022/05/31 15:22:04;;;;;;;1.90;1.38;;;21.60;81.80;;;;;;6182570;28;89181;-63
2022/05/31 15:25:13;;;;;;;1.80;1.55;;;21.60;81.80;;;;;;6181754;28;89557;-63
2022/05/31 15:28:15;;;;;;;1.88;1.52;;;21.60;81.80;;;;;;6181280;28;89440;-63
2022/05/31 15:31:31;;;;;;;1.30;1.20;;;21.60;81.70;;;;;;6181913;28;89199;-64
2022/05/31 15:34:35;;;;;;;1.50;1.40;;;21.60;81.60;;;;;;6181802;28;89159;-64
2022/05/31 15:37:37;;;;;;;1.55;1.40;;;21.60;81.60;;;;;;6177286;28;90189;-63
2022/05/31 15:40:42;;;;;;;1.60;1.50;;;21.60;81.50;;;;;;6182836;28;89095;-64
2022/05/31 15:43:53;;;;;;;1.95;1.40;;;21.60;81.50;;;;;;6178341;28;89115;-64
2022/05/31 15:46:55;;;;;;;1.38;1.27;;;21.60;81.50;;;;;;6182171;28;89054;-64
2022/05/31 15:49:57;;;;;;;1.60;1.50;;;21.60;81.50;;;;;;6182308;28;89049;-64
2022/05/31 15:52:59;;;;;;;1.50;1.40;;;21.70;81.60;;;;;;6180092;28;87968;-64
2022/05/31 15:56:03;;;;;;;1.48;1.38;;;21.60;81.50;;;;;;6182930;28;89075;-63
2022/05/31 15:59:06;;;;;;;1.52;1.40;;;21.60;81.40;;;;;;6180657;28;87215;-64
2022/05/31 16:02:09;;;;;;;2.65;1.80;;;21.70;81.50;;;;;;6181365;28;89022;-64
2022/05/31 16:05:12;;;;;;;2.00;1.60;;;21.70;81.40;;;;;;6181508;28;89107;-64
2022/05/31 16:08:14;;;;;;;1.65;1.33;;;21.70;81.40;;;;;;6181879;28;90037;-64
2022/05/31 16:11:18;;;;;;;1.92;1.55;;;21.70;81.50;;;;;;6180505;28;89380;-64
2022/05/31 16:14:23;;;;;;;1.65;1.38;;;21.70;81.40;;;;;;6180388;28;89087;-64
2022/05/31 16:17:25;;;;;;;1.40;1.30;;;21.70;81.40;;;;;;6171144;28;91053;-64
2022/05/31 16:20:27;;;;;;;1.60;1.23;;;21.70;81.30;;;;;;6181166;28;90611;-64
2022/05/31 16:23:31;;;;;;;1.40;1.30;;;21.70;81.40;;;;;;6180904;28;87690;-64
2022/05/31 16:26:38;;;;;;;1.20;1.10;;;21.70;81.50;;;;;;6181227;28;88937;-64
2022/05/31 16:29:41;;;;;;;1.40;1.27;;;21.70;81.50;;;;;;6180692;28;88332;-63
2022/05/31 16:32:43;;;;;;;1.30;1.20;;;21.70;81.60;;;;;;6180378;28;89161;-64
2022/05/31 16:35:47;;;;;;;1.80;1.60;;;21.60;81.50;;;;;;6181133;28;89077;-64
2022/05/31 16:42:09;;;;;;;1.30;1.20;;;21.60;81.50;;;;;;6172408;28;87289;-64
2022/05/31 16:45:12;;;;;;;1.40;1.30;;;21.60;81.50;;;;;;6180981;28;89013;-64
2022/05/31 16:48:14;;;;;;;1.80;1.58;;;21.60;81.50;;;;;;6179742;28;89839;-64